KDWH/DWH METAR and TAF weather

Enter ICAO airport designator
Station Type Date Time Source
KDWH METAR 2019/08/19 07:53 UTC NOAA

KDWH 190753Z AUTO 15003KT 10SM CLR 27/24 A2994 RMK AO2 SLP137 T02720239


Station Type Date Time Source
KDWH Decoded METAR 2019/08/19 07:53 UTC NOAA

Station name not available
Aug 19, 2019 - 03:53 AM EDT / 2019.08.19 0753 UTC
Wind: from the SSE (150 degrees) at 3 MPH (3 KT):0
Visibility: 10 mile(s):0
Sky conditions: clear
Temperature: 81.0 F (27.2 C)
Dew Point: 75.0 F (23.9 C)
Relative Humidity: 82%
Pressure (altimeter): 29.94 in. Hg (1013 hPa)
ob: KDWH 190753Z AUTO 15003KT 10SM CLR 27/24 A2994 RMK AO2 SLP137 T02720239
cycle: 8

Station Type Date Time Source
KDWH TAF 2017/02/07 15:09 UTC NOAA

TAF
AMD KDWH 071507Z 0715/0812 23010KT P6SM BKN015
TEMPO 0715/0719 SCT015
FM071900 25010KT P6SM SCT025
FM080100 22005KT P6SM SCT250
TEMPO 0807/0809 3SM BR BKN013
FM080900 VRB03KT 2SM BR OVC008

Example: see airport list